createdAt,value
2018-05-02T05:46:55.168Z,19.56
2018-05-02T05:49:21.647Z,19.69
2018-05-02T05:51:48.036Z,19.72
2018-05-02T05:54:14.498Z,19.82
2018-05-02T05:56:41.012Z,19.98
2018-05-02T05:59:07.509Z,20.06
2018-05-02T06:01:34.005Z,20.19
2018-05-02T06:04:00.483Z,20.19
2018-05-02T06:06:26.906Z,20.07
2018-05-02T06:08:53.272Z,20.00
2018-05-02T06:11:19.724Z,20.23
2018-05-02T06:13:46.064Z,20.35
2018-05-02T06:16:12.509Z,20.47
2018-05-02T06:18:38.905Z,20.58
2018-05-02T06:21:05.287Z,20.67
2018-05-02T06:23:31.778Z,20.78
2018-05-02T06:25:58.206Z,20.89
2018-05-02T06:28:24.683Z,21.11
2018-05-02T06:30:51.081Z,21.16
2018-05-02T06:33:17.493Z,21.28
2018-05-02T06:35:44.028Z,21.47
2018-05-02T06:38:10.439Z,21.46
2018-05-02T06:40:36.856Z,21.56
2018-05-02T06:43:03.344Z,21.57
2018-05-02T06:45:29.712Z,21.59
2018-05-02T06:47:56.180Z,21.65
2018-05-02T06:50:22.726Z,21.66
2018-05-02T06:52:49.239Z,21.61
2018-05-02T06:55:15.673Z,21.87
2018-05-02T06:57:42.100Z,22.04
2018-05-02T07:00:08.573Z,22.10
2018-05-02T07:02:34.989Z,22.30
2018-05-02T07:05:01.384Z,22.24
2018-05-02T07:07:27.829Z,22.25
2018-05-02T07:09:54.276Z,22.22
2018-05-02T07:12:20.685Z,22.21
2018-05-02T07:14:47.136Z,22.30
2018-05-02T07:17:13.600Z,22.36
2018-05-02T07:19:40.091Z,22.50
2018-05-02T07:22:06.520Z,22.42
2018-05-02T07:24:33.022Z,22.60
2018-05-02T07:26:59.502Z,22.75
2018-05-02T07:29:26.217Z,22.94
2018-05-02T07:31:52.748Z,23.09
2018-05-02T07:34:19.256Z,22.78
2018-05-02T07:36:45.619Z,22.73
2018-05-02T07:39:12.097Z,22.95
2018-05-02T07:41:38.518Z,23.11
2018-05-02T07:44:04.932Z,23.23
2018-05-02T07:46:31.380Z,23.31
2018-05-02T07:48:57.810Z,23.09
2018-05-02T07:51:24.260Z,23.12
2018-05-02T07:53:50.684Z,23.20
2018-05-02T07:56:17.060Z,23.27
2018-05-02T07:58:43.519Z,23.42
2018-05-02T08:01:09.900Z,23.22
2018-05-02T08:03:36.481Z,22.87
2018-05-02T08:06:02.872Z,22.71
2018-05-02T08:08:29.309Z,22.99
2018-05-02T08:10:55.741Z,23.13
2018-05-02T08:13:22.174Z,23.32
2018-05-02T08:15:48.667Z,23.40
2018-05-02T08:18:15.110Z,23.30
2018-05-02T08:20:41.601Z,23.33
2018-05-02T08:23:07.969Z,23.38
2018-05-02T08:25:34.426Z,23.35
2018-05-02T08:28:00.864Z,23.40
2018-05-02T08:30:27.299Z,23.33
2018-05-02T08:32:53.827Z,23.35
2018-05-02T08:35:20.209Z,23.65
2018-05-02T08:37:46.641Z,23.85
2018-05-02T08:40:13.087Z,23.91
2018-05-02T08:42:39.720Z,24.04
2018-05-02T08:45:06.200Z,24.08
2018-05-02T08:47:32.708Z,24.19
2018-05-02T08:49:59.187Z,24.29
2018-05-02T08:52:25.528Z,24.38
2018-05-02T08:54:52.004Z,24.40
2018-05-02T08:57:18.510Z,24.18
2018-05-02T08:59:44.844Z,24.31
2018-05-02T09:02:11.284Z,24.40
2018-05-02T09:04:37.660Z,24.55
2018-05-02T09:07:04.081Z,24.61
2018-05-02T09:09:30.496Z,24.63
2018-05-02T09:11:56.947Z,24.71
2018-05-02T09:14:23.393Z,24.56
2018-05-02T09:16:49.752Z,24.45
2018-05-02T09:19:16.101Z,24.41
2018-05-02T09:21:42.504Z,24.47
2018-05-02T09:24:08.893Z,24.47
2018-05-02T09:26:35.337Z,24.33
2018-05-02T09:29:01.728Z,24.45
2018-05-02T09:31:28.204Z,24.65
2018-05-02T09:33:54.591Z,24.75
2018-05-02T09:36:20.979Z,24.87
2018-05-02T09:38:47.379Z,24.92
2018-05-02T09:41:13.746Z,24.96
2018-05-02T09:43:40.239Z,25.00
2018-05-02T09:46:06.612Z,25.20
2018-05-02T09:48:33.056Z,25.27
2018-05-02T09:50:59.437Z,25.26
2018-05-02T09:53:25.923Z,25.39
2018-05-02T09:55:52.399Z,25.41
2018-05-02T09:58:18.874Z,25.41
2018-05-02T10:00:45.270Z,25.43
2018-05-02T10:03:11.680Z,25.38
2018-05-02T10:05:38.175Z,25.24
2018-05-02T10:08:04.639Z,25.31
2018-05-02T10:10:31.111Z,25.37
2018-05-02T10:12:57.595Z,25.48
2018-05-02T10:15:24.029Z,25.47
2018-05-02T10:17:50.443Z,25.49
2018-05-02T10:20:17.126Z,25.61
2018-05-02T10:22:43.716Z,25.62
2018-05-02T10:25:10.265Z,25.40
2018-05-02T10:27:36.723Z,25.60
2018-05-02T10:30:03.332Z,25.71
2018-05-02T10:32:29.877Z,25.74
2018-05-02T10:34:56.482Z,25.49
2018-05-02T10:37:23.569Z,25.38
2018-05-02T10:39:50.144Z,25.38
2018-05-02T10:42:16.537Z,25.58
2018-05-02T10:44:42.892Z,25.73
2018-05-02T10:47:09.371Z,25.74
2018-05-02T10:49:35.812Z,25.72
2018-05-02T10:52:02.339Z,25.83
2018-05-02T10:54:28.788Z,25.64
2018-05-02T10:56:55.275Z,25.68
2018-05-02T10:59:21.707Z,25.45
2018-05-02T11:01:48.663Z,25.68
2018-05-02T11:04:15.036Z,25.69
2018-05-02T11:06:41.609Z,25.66
2018-05-02T11:09:08.068Z,25.90
2018-05-02T11:11:34.598Z,25.94
2018-05-02T11:14:01.120Z,26.06
2018-05-02T11:16:29.890Z,26.02
2018-05-02T11:18:56.592Z,26.06
2018-05-02T11:21:22.949Z,26.11
2018-05-02T11:23:49.809Z,26.16
2018-05-02T11:26:16.200Z,26.08
2018-05-02T11:28:42.695Z,26.21
2018-05-02T11:31:09.216Z,26.09
2018-05-02T11:33:35.576Z,25.93
2018-05-02T11:36:02.007Z,26.04
2018-05-02T11:38:28.532Z,26.04
2018-05-02T11:40:54.948Z,26.21
2018-05-02T11:43:21.427Z,26.27
2018-05-02T11:45:47.948Z,26.34
2018-05-02T11:48:14.401Z,26.32
2018-05-02T11:50:40.835Z,26.36
2018-05-02T11:53:07.240Z,26.31
2018-05-02T11:55:33.615Z,26.09
2018-05-02T11:58:00.044Z,26.22
2018-05-02T12:00:26.482Z,26.26
2018-05-02T12:02:53.052Z,26.32
2018-05-02T12:05:19.614Z,26.44
2018-05-02T12:07:46.667Z,26.41
2018-05-02T12:10:13.177Z,26.23
2018-05-02T12:12:39.596Z,26.43
2018-05-02T12:15:06.097Z,26.50
2018-05-02T12:17:32.515Z,26.60
2018-05-02T12:19:58.984Z,26.71
2018-05-02T12:22:25.420Z,26.78
2018-05-02T12:24:51.951Z,26.75
2018-05-02T12:27:18.485Z,26.80
2018-05-02T12:29:45.047Z,26.83
2018-05-02T12:32:11.406Z,26.83
2018-05-02T12:34:37.831Z,26.84
2018-05-02T12:37:04.204Z,26.85
2018-05-02T12:39:30.620Z,26.92
2018-05-02T12:41:57.016Z,26.94
2018-05-02T12:44:23.371Z,26.97
2018-05-02T12:46:49.815Z,26.92
2018-05-02T12:49:16.171Z,26.90
2018-05-02T12:51:42.701Z,27.00
2018-05-02T12:54:09.332Z,27.08
2018-05-02T12:56:35.897Z,27.04
2018-05-02T12:59:02.432Z,26.99
2018-05-02T13:01:28.892Z,26.99
2018-05-02T13:03:55.309Z,26.88
2018-05-02T13:06:21.768Z,26.92
2018-05-02T13:08:48.151Z,27.00
2018-05-02T13:11:14.680Z,27.10
2018-05-02T13:13:41.188Z,27.04
2018-05-02T13:16:07.651Z,27.08
2018-05-02T13:18:34.088Z,27.14
2018-05-02T13:21:00.660Z,27.15
2018-05-02T13:23:27.177Z,27.12
2018-05-02T13:25:53.553Z,27.19
2018-05-02T13:28:20.200Z,27.23
2018-05-02T13:30:46.721Z,27.18
2018-05-02T13:33:13.205Z,27.23
2018-05-02T13:35:39.536Z,27.16
2018-05-02T13:38:05.911Z,27.21
2018-05-02T13:40:33.483Z,27.15
2018-05-02T13:43:00.196Z,27.22
2018-05-02T13:45:26.688Z,27.26
2018-05-02T13:47:53.249Z,27.14
2018-05-02T13:50:19.804Z,27.12
2018-05-02T13:52:46.264Z,27.00
2018-05-02T13:55:12.698Z,26.70
2018-05-02T13:57:39.089Z,26.79
2018-05-02T14:00:05.629Z,26.85
2018-05-02T14:02:32.081Z,26.67
2018-05-02T14:04:58.498Z,26.63
2018-05-02T14:07:24.976Z,26.64
2018-05-02T14:09:51.424Z,26.62
2018-05-02T14:12:17.790Z,26.63
2018-05-02T14:14:44.224Z,26.55
2018-05-02T14:17:10.609Z,26.56
2018-05-02T14:19:37.125Z,26.53
2018-05-02T14:22:03.548Z,26.43
2018-05-02T14:24:29.901Z,26.42
2018-05-02T14:26:56.394Z,26.42
2018-05-02T14:29:22.836Z,26.36
2018-05-02T14:31:49.264Z,26.20
2018-05-02T14:34:15.668Z,26.15
2018-05-02T14:36:42.103Z,26.13
2018-05-02T14:39:08.588Z,26.10
2018-05-02T14:41:34.941Z,26.06
2018-05-02T14:44:01.360Z,26.08
2018-05-02T14:46:27.742Z,26.06
2018-05-02T14:48:54.128Z,25.96
2018-05-02T14:51:20.561Z,25.87
2018-05-02T14:53:46.993Z,25.83
2018-05-02T14:56:13.345Z,25.79
2018-05-02T14:58:39.728Z,25.76
2018-05-02T15:01:06.209Z,25.82
2018-05-02T15:03:32.702Z,25.77
2018-05-02T15:05:59.151Z,25.68
2018-05-02T15:08:25.533Z,25.78
2018-05-02T15:10:51.958Z,25.72
2018-05-02T15:13:18.381Z,25.72
2018-05-02T15:15:44.791Z,25.67
2018-05-02T15:18:11.225Z,25.54
2018-05-02T15:20:37.631Z,25.50
2018-05-02T15:23:04.093Z,25.49
2018-05-02T15:25:30.536Z,25.47
2018-05-02T15:27:57.019Z,25.26
2018-05-02T15:30:23.472Z,25.38
2018-05-02T15:32:49.859Z,25.33
2018-05-02T15:35:16.244Z,25.42
2018-05-02T15:37:43.542Z,25.20
2018-05-02T15:40:10.027Z,25.23
2018-05-02T15:42:36.404Z,25.31
2018-05-02T15:45:02.852Z,25.19
2018-05-02T15:47:29.351Z,25.36
2018-05-02T15:49:55.711Z,25.22
2018-05-02T15:52:22.124Z,25.17
2018-05-02T15:54:48.524Z,25.15
2018-05-02T15:57:15.037Z,25.14
2018-05-02T15:59:42.292Z,25.19
2018-05-02T16:02:09.009Z,25.15
2018-05-02T16:04:35.656Z,25.12
2018-05-02T16:07:02.063Z,25.13
2018-05-02T16:09:28.481Z,25.16
2018-05-02T16:11:54.917Z,25.22
2018-05-02T16:14:21.468Z,25.25
2018-05-02T16:16:47.910Z,25.24
2018-05-02T16:19:14.436Z,25.19
2018-05-02T16:21:41.044Z,25.20
2018-05-02T16:24:07.504Z,25.31
2018-05-02T16:26:34.061Z,25.13
2018-05-02T16:29:00.532Z,25.27
2018-05-02T16:31:27.017Z,25.17
2018-05-02T16:33:53.716Z,25.04
2018-05-02T16:36:20.129Z,25.01
2018-05-02T16:38:46.515Z,24.93
2018-05-02T16:41:12.920Z,24.98
2018-05-02T16:43:39.381Z,24.93
2018-05-02T16:46:05.932Z,24.90
2018-05-02T16:48:32.361Z,24.92
2018-05-02T16:50:59.237Z,24.91
2018-05-02T16:53:25.955Z,24.79
2018-05-02T16:55:52.449Z,24.80
2018-05-02T16:58:18.921Z,24.71
2018-05-02T17:00:45.382Z,24.63
2018-05-02T17:03:12.062Z,24.67
2018-05-02T17:05:38.528Z,24.76
2018-05-02T17:08:04.908Z,24.69
2018-05-02T17:10:31.501Z,24.70
2018-05-02T17:12:57.928Z,24.74
2018-05-02T17:15:24.462Z,24.76
2018-05-02T17:17:51.202Z,24.74
2018-05-02T17:20:17.701Z,24.65
2018-05-02T17:22:44.725Z,24.60
2018-05-02T17:25:11.213Z,24.64
2018-05-02T17:27:37.736Z,24.51
2018-05-02T17:30:04.358Z,24.42
2018-05-02T17:32:30.792Z,24.39
2018-05-02T17:34:57.244Z,24.41
2018-05-02T17:37:23.596Z,24.32
2018-05-02T17:39:50.104Z,24.23
2018-05-02T17:42:16.560Z,24.26
2018-05-02T17:44:43.002Z,24.22
2018-05-02T17:55:38.842Z,23.97
2018-05-02T17:58:05.405Z,23.94
2018-05-02T18:00:31.908Z,23.89
2018-05-02T18:02:58.345Z,23.86
2018-05-02T18:05:24.884Z,23.87
2018-05-02T18:07:51.248Z,23.86
2018-05-02T18:10:17.682Z,23.84
2018-05-02T18:12:44.172Z,23.78
2018-05-02T18:15:10.632Z,23.76
2018-05-02T18:17:37.138Z,23.68
2018-05-02T18:20:03.668Z,23.59
2018-05-02T18:22:30.210Z,23.64
2018-05-02T18:24:56.661Z,23.56
2018-05-02T18:27:23.196Z,23.63
2018-05-02T18:29:49.660Z,23.47
2018-05-02T18:32:16.062Z,23.41
2018-05-02T18:34:42.597Z,23.42
2018-05-02T18:37:09.010Z,23.49
2018-05-02T18:39:35.474Z,23.44
2018-05-02T18:42:01.878Z,23.32
2018-05-02T18:44:28.403Z,23.32
2018-05-02T18:46:54.853Z,23.28
2018-05-02T18:49:21.389Z,23.19
2018-05-02T18:51:47.932Z,23.11
2018-05-02T18:54:14.323Z,23.13
2018-05-02T18:56:40.911Z,23.10
2018-05-02T18:59:07.456Z,23.00
2018-05-02T19:01:33.925Z,22.91
2018-05-02T19:04:00.396Z,22.98
2018-05-02T19:06:26.827Z,22.90
2018-05-02T19:08:53.244Z,22.95
2018-05-02T19:11:19.725Z,22.85
2018-05-02T19:13:52.460Z,22.90
2018-05-02T19:16:19.013Z,22.74
2018-05-02T19:18:51.681Z,22.76
2018-05-02T19:21:18.092Z,22.72
2018-05-02T19:23:44.529Z,22.76
2018-05-02T19:26:17.108Z,22.79
2018-05-02T19:28:43.724Z,22.76
2018-05-02T19:31:16.310Z,22.82
2018-05-02T19:33:48.775Z,22.77
2018-05-02T19:36:15.264Z,22.68
2018-05-02T19:38:41.778Z,22.71
2018-05-02T19:41:14.232Z,22.73
2018-05-02T19:43:46.712Z,22.63
2018-05-02T19:46:13.155Z,22.51
2018-05-02T19:48:39.706Z,22.53
2018-05-02T19:51:12.104Z,22.47
2018-05-02T19:53:38.596Z,22.45
2018-05-02T19:56:05.037Z,22.34
2018-05-02T19:58:31.530Z,22.35
2018-05-02T20:01:04.505Z,22.42
2018-05-02T20:03:30.991Z,22.38
2018-05-02T20:05:57.516Z,22.41
2018-05-02T20:08:29.941Z,22.48
2018-05-02T20:11:02.646Z,22.40
2018-05-02T20:13:36.917Z,22.39
2018-05-02T20:16:04.628Z,22.34
2018-05-02T20:18:31.127Z,22.43
2018-05-02T20:20:57.578Z,22.43
2018-05-02T20:23:24.032Z,22.37
2018-05-02T20:25:50.615Z,22.38
2018-05-02T20:28:17.035Z,22.28
2018-05-02T20:30:43.530Z,22.31
2018-05-02T20:33:09.860Z,22.27
2018-05-02T20:35:36.264Z,22.21
2018-05-02T20:38:02.860Z,22.16
2018-05-02T20:40:29.293Z,22.16
2018-05-02T20:42:55.907Z,22.11
2018-05-02T20:45:22.396Z,22.03
2018-05-02T20:47:48.987Z,22.05
2018-05-02T20:50:15.391Z,22.10
2018-05-02T20:52:41.864Z,22.13
2018-05-02T20:55:08.386Z,22.11
2018-05-02T20:57:34.659Z,22.08
2018-05-02T21:00:01.117Z,21.93
2018-05-02T21:02:27.620Z,21.97
2018-05-02T21:04:54.160Z,21.93
2018-05-02T21:07:20.686Z,21.86
2018-05-02T21:09:47.120Z,21.67
2018-05-02T21:12:13.543Z,21.86
2018-05-02T21:14:40.008Z,21.62
2018-05-02T21:17:06.455Z,21.73
2018-05-02T21:19:32.849Z,21.78
2018-05-02T21:21:59.431Z,21.84
2018-05-02T21:24:25.919Z,21.85
2018-05-02T21:26:52.285Z,21.87
2018-05-02T21:29:18.852Z,21.90
2018-05-02T21:31:45.360Z,21.86
2018-05-02T21:34:11.736Z,21.89
2018-05-02T21:36:38.128Z,21.89
2018-05-02T21:39:04.708Z,21.89
2018-05-02T21:41:31.168Z,21.94
2018-05-02T21:43:57.676Z,21.84
2018-05-02T21:46:24.151Z,21.78
2018-05-02T21:48:50.652Z,21.67
2018-05-02T21:51:17.132Z,21.60
2018-05-02T21:53:43.596Z,21.53
2018-05-02T21:56:10.280Z,21.57
2018-05-02T21:58:36.735Z,21.57
2018-05-02T22:01:03.301Z,21.44
2018-05-02T22:03:29.721Z,21.31
2018-05-02T22:05:56.254Z,21.35
2018-05-02T22:08:22.644Z,21.29
2018-05-02T22:10:49.124Z,21.24
2018-05-02T22:13:15.596Z,21.22
2018-05-02T22:15:42.004Z,21.04
2018-05-02T22:18:08.521Z,21.05
2018-05-02T22:20:34.956Z,20.99
2018-05-02T22:23:01.408Z,20.79
2018-05-02T22:25:27.793Z,20.91
2018-05-02T22:27:54.236Z,20.86
2018-05-02T22:30:20.608Z,20.96
2018-05-02T22:32:47.027Z,20.90
2018-05-02T22:35:13.455Z,21.00
2018-05-02T22:37:40.040Z,21.10
2018-05-02T22:40:06.544Z,21.15
2018-05-02T22:42:32.993Z,21.13
2018-05-02T22:44:59.513Z,21.14
2018-05-02T22:47:26.040Z,21.14
2018-05-02T22:49:52.424Z,21.15
2018-05-02T22:52:18.876Z,21.17
2018-05-02T22:54:45.448Z,21.16
2018-05-02T22:57:11.926Z,21.20
2018-05-02T22:59:38.399Z,21.15
2018-05-02T23:02:04.944Z,21.11
2018-05-02T23:04:31.519Z,21.01
2018-05-02T23:06:58.056Z,20.98
2018-05-02T23:09:24.513Z,20.95
2018-05-02T23:11:50.915Z,20.98
2018-05-02T23:14:17.403Z,20.96
2018-05-02T23:16:43.859Z,20.86
2018-05-02T23:19:10.341Z,20.79
2018-05-02T23:21:36.779Z,20.76
2018-05-02T23:24:03.272Z,20.71
2018-05-02T23:26:29.727Z,20.62
2018-05-02T23:28:56.219Z,20.57
2018-05-02T23:31:22.659Z,20.46
2018-05-02T23:33:49.019Z,20.31
2018-05-02T23:36:15.504Z,20.21
2018-05-02T23:38:41.933Z,20.14
2018-05-02T23:41:08.456Z,20.12
2018-05-02T23:43:34.891Z,20.10
2018-05-02T23:46:01.337Z,20.04
2018-05-02T23:48:27.820Z,19.96
2018-05-02T23:50:54.336Z,19.91
2018-05-02T23:53:20.811Z,19.85
2018-05-02T23:55:47.336Z,19.76
2018-05-02T23:58:13.962Z,19.65
